createdAt,value
2023-01-13T00:00:27.993Z,99715.37
2023-01-13T00:04:58.685Z,99718.85
2023-01-13T00:09:06.892Z,99718.07
2023-01-13T00:13:14.513Z,99712.89
2023-01-13T00:17:23.683Z,99706.88
2023-01-13T00:21:31.489Z,99710.36
2023-01-13T00:25:39.957Z,99709.33
2023-01-13T00:29:47.438Z,99704.17
2023-01-13T00:33:57.270Z,99706.05
2023-01-13T00:38:04.954Z,99702.35
2023-01-13T00:42:29.866Z,99699.70
2023-01-13T00:46:37.872Z,99692.42
2023-01-13T00:50:46.137Z,99696.02
2023-01-13T00:54:54.527Z,99693.10
2023-01-13T00:59:02.367Z,99687.83
2023-01-13T01:03:13.189Z,99682.64
2023-01-13T01:07:21.303Z,99681.19
2023-01-13T01:11:31.936Z,99677.67
2023-01-13T01:15:44.009Z,99674.71
2023-01-13T01:19:51.738Z,99676.46
2023-01-13T01:24:02.574Z,99664.13
2023-01-13T01:28:13.199Z,99648.33
2023-01-13T01:32:21.087Z,99648.09
2023-01-13T01:36:30.523Z,99642.63
2023-01-13T01:40:38.369Z,99638.55
2023-01-13T01:45:00.631Z,99639.70
2023-01-13T01:49:14.554Z,99639.65
2023-01-13T01:53:24.143Z,99635.44
2023-01-13T01:57:35.666Z,99624.17
2023-01-13T02:01:46.645Z,99613.30
2023-01-13T02:05:54.281Z,99606.86
2023-01-13T02:10:05.430Z,99610.73
2023-01-13T02:14:14.273Z,99613.10
2023-01-13T02:18:38.901Z,99623.15
2023-01-13T02:23:02.868Z,99616.12
2023-01-13T02:27:33.263Z,99619.70
2023-01-13T02:31:44.232Z,99621.89
2023-01-13T02:35:55.625Z,99617.69
2023-01-13T02:40:07.468Z,99622.36
2023-01-13T02:44:21.308Z,99618.67
2023-01-13T02:48:30.390Z,99617.55
2023-01-13T02:52:41.599Z,99616.02
2023-01-13T02:56:51.367Z,99616.78
2023-01-13T03:01:00.115Z,99610.71
2023-01-13T03:05:08.924Z,99607.92
2023-01-13T03:09:20.849Z,99607.80
2023-01-13T03:13:54.490Z,99608.60
2023-01-13T03:18:08.539Z,99603.12
2023-01-13T03:22:22.376Z,99605.64
2023-01-13T03:26:34.897Z,99599.04
2023-01-13T03:30:49.661Z,99596.52
2023-01-13T03:35:01.104Z,99589.55
2023-01-13T03:39:13.105Z,99589.88
2023-01-13T03:43:41.593Z,99591.49
2023-01-13T03:47:52.546Z,99591.08
2023-01-13T03:52:03.316Z,99594.86
2023-01-13T03:56:17.222Z,99593.42
2023-01-13T04:00:27.497Z,99594.13
2023-01-13T04:04:36.622Z,99588.79
2023-01-13T04:08:49.751Z,99585.02
2023-01-13T04:13:05.576Z,99584.12
2023-01-13T04:17:13.387Z,99579.60
2023-01-13T04:21:21.440Z,99581.66
2023-01-13T04:25:29.874Z,99580.41
2023-01-13T04:29:39.090Z,99580.86
2023-01-13T04:33:47.070Z,99572.63
2023-01-13T04:37:55.252Z,99562.43
2023-01-13T04:42:03.217Z,99566.48
2023-01-13T04:46:10.909Z,99560.88
2023-01-13T04:50:20.663Z,99555.27
2023-01-13T04:54:28.467Z,99553.73
2023-01-13T04:58:36.801Z,99553.95
2023-01-13T05:02:44.129Z,99559.50
2023-01-13T05:06:52.359Z,99559.59
2023-01-13T05:11:24.066Z,99559.27
2023-01-13T05:15:49.501Z,99554.58
2023-01-13T05:19:57.486Z,99551.85
2023-01-13T05:24:22.938Z,99555.57
2023-01-13T05:28:34.733Z,99556.83
2023-01-13T05:32:42.672Z,99557.66
2023-01-13T05:36:50.677Z,99559.65
2023-01-13T05:41:15.377Z,99557.98
2023-01-13T05:45:23.427Z,99560.93
2023-01-13T05:49:31.141Z,99559.48
2023-01-13T05:53:40.664Z,99562.58
2023-01-13T05:57:48.960Z,99559.61
2023-01-13T06:01:57.082Z,99559.81
2023-01-13T06:06:05.488Z,99553.74
2023-01-13T06:10:14.702Z,99555.95
2023-01-13T06:14:22.445Z,99557.15
2023-01-13T06:18:30.918Z,99556.70
2023-01-13T06:22:41.453Z,99560.04
2023-01-13T06:26:49.737Z,99555.77
2023-01-13T06:30:59.723Z,99559.11
2023-01-13T06:35:10.875Z,99554.54
2023-01-13T06:39:21.228Z,99556.69
2023-01-13T06:43:29.446Z,99559.58
2023-01-13T06:47:37.190Z,99555.77
2023-01-13T06:51:45.044Z,99559.15
2023-01-13T06:55:52.730Z,99554.85
2023-01-13T07:00:01.592Z,99556.00
2023-01-13T07:04:10.086Z,99559.89
2023-01-13T07:08:17.893Z,99562.95
2023-01-13T07:12:25.666Z,99560.83
2023-01-13T07:16:36.833Z,99561.10
2023-01-13T07:20:44.835Z,99560.19
2023-01-13T07:24:52.449Z,99567.73
2023-01-13T07:29:01.019Z,99569.43
2023-01-13T07:33:08.840Z,99567.98
2023-01-13T07:37:16.796Z,99566.66
2023-01-13T07:41:42.174Z,99564.40
2023-01-13T07:45:49.921Z,99563.04
2023-01-13T07:49:58.133Z,99560.34
2023-01-13T07:54:06.263Z,99565.00
2023-01-13T07:58:13.845Z,99575.13
2023-01-13T08:02:22.023Z,99574.95
2023-01-13T08:06:30.815Z,99576.77
2023-01-13T08:10:38.892Z,99574.56
2023-01-13T08:14:46.130Z,99569.78
2023-01-13T08:18:53.912Z,99570.53
2023-01-13T08:23:02.516Z,99569.10
2023-01-13T08:27:10.321Z,99575.17
2023-01-13T08:31:20.355Z,99576.79
2023-01-13T08:35:30.926Z,99579.17
2023-01-13T08:39:40.095Z,99583.48
2023-01-13T08:43:47.938Z,99574.95
2023-01-13T08:47:55.796Z,99573.56
2023-01-13T08:52:04.954Z,99578.05
2023-01-13T08:56:13.845Z,99578.60
2023-01-13T09:00:23.976Z,99584.45
2023-01-13T09:04:33.706Z,99587.38
2023-01-13T09:08:41.396Z,99590.23
2023-01-13T09:13:11.566Z,99593.79
2023-01-13T09:17:20.295Z,99600.88
2023-01-13T09:21:28.257Z,99602.51
2023-01-13T09:25:37.347Z,99594.47
2023-01-13T09:29:46.042Z,99597.61
2023-01-13T09:34:16.875Z,99592.23
2023-01-13T09:38:25.267Z,99593.55
2023-01-13T09:43:01.880Z,99590.72
2023-01-13T09:47:21.463Z,99588.05
2023-01-13T09:51:32.844Z,99580.34
2023-01-13T09:55:40.980Z,99576.96
2023-01-13T09:59:49.272Z,99566.88
2023-01-13T10:03:56.900Z,99564.02
2023-01-13T10:08:07.221Z,99560.64
2023-01-13T10:12:36.578Z,99560.96
2023-01-13T10:16:49.716Z,99562.41
2023-01-13T10:21:04.104Z,99562.30
2023-01-13T10:25:21.524Z,99562.45
2023-01-13T10:29:31.385Z,99559.05
2023-01-13T10:33:39.040Z,99559.10
2023-01-13T10:37:59.429Z,99546.30
2023-01-13T10:42:08.978Z,99547.66
2023-01-13T10:46:19.413Z,99537.38
2023-01-13T10:50:31.686Z,99537.62
2023-01-13T10:54:39.697Z,99537.13
2023-01-13T10:58:47.901Z,99535.50
2023-01-13T11:03:13.127Z,99533.55
2023-01-13T11:07:34.577Z,99532.06
2023-01-13T11:11:43.583Z,99528.77
2023-01-13T11:15:57.205Z,99537.36
2023-01-13T11:20:14.361Z,99537.20
2023-01-13T11:24:26.946Z,99527.32
2023-01-13T11:28:41.529Z,99524.18
2023-01-13T11:32:59.148Z,99525.33
2023-01-13T11:37:16.002Z,99523.42
2023-01-13T11:41:38.424Z,99519.60
2023-01-13T11:45:50.968Z,99518.90
2023-01-13T11:49:59.487Z,99512.91
2023-01-13T11:54:36.567Z,99509.91
2023-01-13T11:59:20.761Z,99509.90
2023-01-13T12:03:32.686Z,99509.39
2023-01-13T12:07:49.993Z,99504.59
2023-01-13T12:12:21.199Z,99501.10
2023-01-13T12:16:32.180Z,99504.27
2023-01-13T12:20:45.807Z,99496.09
2023-01-13T12:25:01.505Z,99495.36
2023-01-13T12:29:15.519Z,99498.09
2023-01-13T12:33:29.672Z,99496.71
2023-01-13T12:37:42.925Z,99493.13
2023-01-13T12:42:11.342Z,99498.37
2023-01-13T12:46:36.623Z,99499.77
2023-01-13T12:50:47.613Z,99507.75
2023-01-13T12:55:21.860Z,99504.36
2023-01-13T12:59:55.156Z,99507.12
2023-01-13T13:04:14.520Z,99512.91
2023-01-13T13:08:27.940Z,99520.40
2023-01-13T13:13:17.521Z,99524.17
2023-01-13T13:17:44.408Z,99527.64
2023-01-13T13:22:22.461Z,99525.55
2023-01-13T13:26:36.889Z,99531.58
2023-01-13T13:30:50.072Z,99536.51
2023-01-13T13:35:13.868Z,99535.05
2023-01-13T13:39:41.685Z,99539.85
2023-01-13T13:44:07.500Z,99547.06
2023-01-13T13:48:30.781Z,99550.69
2023-01-13T13:52:42.771Z,99554.45
2023-01-13T13:56:51.307Z,99561.45
2023-01-13T14:00:59.476Z,99565.58
2023-01-13T14:05:20.677Z,99567.18
2023-01-13T14:09:29.878Z,99576.09
2023-01-13T14:13:37.763Z,99576.77
2023-01-13T14:17:45.294Z,99587.92
2023-01-13T14:21:53.230Z,99587.15
2023-01-13T14:26:09.134Z,99594.80
2023-01-13T14:30:20.865Z,99602.59
2023-01-13T14:34:31.683Z,99610.35
2023-01-13T14:38:44.403Z,99623.40
2023-01-13T14:43:00.685Z,99630.77
2023-01-13T14:47:21.435Z,99643.45
2023-01-13T14:51:31.364Z,99641.39
2023-01-13T14:55:41.682Z,99653.36
2023-01-13T14:59:57.791Z,99637.42
2023-01-13T15:04:23.783Z,99636.58
2023-01-13T15:08:36.980Z,99633.23
2023-01-13T15:12:46.617Z,99650.17
2023-01-13T15:16:54.983Z,99646.01
2023-01-13T15:21:03.003Z,99651.89
2023-01-13T15:25:12.316Z,99654.44
2023-01-13T15:29:22.896Z,99649.41
2023-01-13T15:33:33.105Z,99647.47
2023-01-13T15:37:41.149Z,99638.45
2023-01-13T15:42:06.023Z,99629.11
2023-01-13T15:46:34.185Z,99633.92
2023-01-13T15:50:42.760Z,99647.95
2023-01-13T15:54:50.587Z,99658.50
2023-01-13T15:58:58.923Z,99657.79
2023-01-13T16:03:07.083Z,99659.54
2023-01-13T16:07:18.096Z,99655.02
2023-01-13T16:11:25.799Z,99667.36
2023-01-13T16:15:34.250Z,99663.30
2023-01-13T16:19:42.920Z,99666.94
2023-01-13T16:23:52.076Z,99682.54
2023-01-13T16:28:00.084Z,99692.61
2023-01-13T16:32:08.583Z,99691.17
2023-01-13T16:36:19.476Z,99704.25
2023-01-13T16:40:31.248Z,99709.40
2023-01-13T16:44:39.438Z,99714.35
2023-01-13T16:48:48.032Z,99721.35
2023-01-13T16:52:56.114Z,99726.60
2023-01-13T16:57:03.935Z,99724.08
2023-01-13T17:01:14.850Z,99728.54
2023-01-13T17:05:22.940Z,99732.08
2023-01-13T17:09:31.425Z,99740.92
2023-01-13T17:13:39.714Z,99747.07
2023-01-13T17:17:52.380Z,99738.12
2023-01-13T17:22:00.185Z,99727.00
2023-01-13T17:26:08.225Z,99721.61
2023-01-13T17:30:16.754Z,99735.58
2023-01-13T17:34:24.740Z,99744.90
2023-01-13T17:38:34.101Z,99751.82
2023-01-13T17:42:42.453Z,99758.60
2023-01-13T17:46:50.700Z,99765.20
2023-01-13T17:50:58.353Z,99776.58
2023-01-13T17:55:06.349Z,99776.17
2023-01-13T17:59:16.471Z,99779.98
2023-01-13T18:03:27.187Z,99769.52
2023-01-13T18:07:40.621Z,99772.88
2023-01-13T18:11:49.089Z,99775.86
2023-01-13T18:16:07.143Z,99779.36
2023-01-13T18:20:36.586Z,99781.90
2023-01-13T18:25:02.185Z,99793.05
2023-01-13T18:29:10.320Z,99793.96
2023-01-13T18:33:17.785Z,99796.34
2023-01-13T18:37:26.322Z,99795.84
2023-01-13T18:41:51.453Z,99802.45
2023-01-13T18:45:59.129Z,99807.69
2023-01-13T18:50:08.814Z,99816.44
2023-01-13T18:54:16.389Z,99815.77
2023-01-13T18:58:24.279Z,99816.86
2023-01-13T19:02:31.889Z,99826.54
2023-01-13T19:06:42.416Z,99834.96
2023-01-13T19:10:53.514Z,99837.06
2023-01-13T19:15:02.460Z,99848.33
2023-01-13T19:19:12.213Z,99849.08
2023-01-13T19:23:19.799Z,99848.21
2023-01-13T19:27:29.293Z,99854.27
2023-01-13T19:31:37.627Z,99847.80
2023-01-13T19:35:45.928Z,99847.67
2023-01-13T19:39:53.822Z,99851.20
2023-01-13T19:44:18.843Z,99860.55
2023-01-13T19:48:26.607Z,99859.20
2023-01-13T19:52:34.314Z,99867.44
2023-01-13T19:56:42.910Z,99876.86
2023-01-13T20:01:16.304Z,99883.59
2023-01-13T20:05:26.384Z,99895.56
2023-01-13T20:09:35.010Z,99891.86
2023-01-13T20:13:43.006Z,99897.23
2023-01-13T20:17:50.843Z,99901.20
2023-01-13T20:21:58.509Z,99908.71
2023-01-13T20:26:09.652Z,99917.12
2023-01-13T20:30:17.039Z,99920.33
2023-01-13T20:34:25.308Z,99929.45
2023-01-13T20:38:37.543Z,99940.30
2023-01-13T20:42:46.046Z,99949.73
2023-01-13T20:46:56.024Z,99951.62
2023-01-13T20:51:03.504Z,99958.77
2023-01-13T20:55:12.831Z,99960.40
2023-01-13T20:59:21.022Z,99967.49
2023-01-13T21:03:28.735Z,99969.65
2023-01-13T21:07:36.658Z,99966.55
2023-01-13T21:12:01.917Z,99965.33
2023-01-13T21:16:13.099Z,99969.20
2023-01-13T21:20:21.750Z,99973.52
2023-01-13T21:25:41.128Z,99976.30
2023-01-13T21:31:19.494Z,99983.60
